Terminal Aerodrome Forecast
Issued by NWS

Home | Current Version | Previous Version | Graphics & Text | Print | Product List | Glossary On
Versions: 1 2 3 4 5 6 7 8 9 10 11 12 13 14 15 16 17 18 19 20
000
FTUS43 KBIS 250520
TAFJMS
TAF
KJMS 250520Z 2506/2606 VRB04KT 4SM -RA BR BKN035
     FM251400 02007KT 5SM -RA BR BKN025 OVC050
     FM252000 04007KT P6SM VCSH OVC050=

USA.gov is the U.S. government's official web portal to all federal, state and local government web resources and services.